sensor_id;sensor_type;location;lat;lon;timestamp;temperature;humidity
14682;DHT22;7429;52.498;13.480;2023-04-24T00:00:12;11.40;99.90
14682;DHT22;7429;52.498;13.480;2023-04-24T00:03:16;11.40;99.90
14682;DHT22;7429;52.498;13.480;2023-04-24T00:06:23;11.40;99.90
14682;DHT22;7429;52.498;13.480;2023-04-24T00:09:26;11.50;99.90
14682;DHT22;7429;52.498;13.480;2023-04-24T00:12:31;11.40;99.90
14682;DHT22;7429;52.498;13.480;2023-04-24T00:15:34;11.40;99.90
14682;DHT22;7429;52.498;13.480;2023-04-24T00:18:37;11.40;99.90
14682;DHT22;7429;52.498;13.480;2023-04-24T00:21:41;11.30;99.90
14682;DHT22;7429;52.498;13.480;2023-04-24T00:24:44;11.30;99.90
14682;DHT22;7429;52.498;13.480;2023-04-24T00:27:48;11.30;99.90
14682;DHT22;7429;52.498;13.480;2023-04-24T00:30:52;11.30;99.90
14682;DHT22;7429;52.498;13.480;2023-04-24T00:33:55;11.30;99.90
14682;DHT22;7429;52.498;13.480;2023-04-24T00:36:58;11.30;99.90
14682;DHT22;7429;52.498;13.480;2023-04-24T00:40:02;11.30;99.90
14682;DHT22;7429;52.498;13.480;2023-04-24T00:43:07;11.20;99.90
14682;DHT22;7429;52.498;13.480;2023-04-24T00:46:11;11.20;99.90
14682;DHT22;7429;52.498;13.480;2023-04-24T00:49:15;11.20;99.90
14682;DHT22;7429;52.498;13.480;2023-04-24T00:52:18;11.10;99.90
14682;DHT22;7429;52.498;13.480;2023-04-24T00:55:22;11.10;99.90
14682;DHT22;7429;52.498;13.480;2023-04-24T00:58:27;11.10;99.90
14682;DHT22;7429;52.498;13.480;2023-04-24T01:01:30;11.10;99.90
14682;DHT22;7429;52.498;13.480;2023-04-24T01:04:34;11.00;99.90
14682;DHT22;7429;52.498;13.480;2023-04-24T01:07:39;11.00;99.90
14682;DHT22;7429;52.498;13.480;2023-04-24T01:10:48;11.00;99.90
14682;DHT22;7429;52.498;13.480;2023-04-24T01:13:54;11.00;99.90
14682;DHT22;7429;52.498;13.480;2023-04-24T01:16:58;11.00;99.90
14682;DHT22;7429;52.498;13.480;2023-04-24T01:20:02;11.00;99.90
14682;DHT22;7429;52.498;13.480;2023-04-24T01:23:13;10.90;99.90
14682;DHT22;7429;52.498;13.480;2023-04-24T01:26:19;10.90;99.90
14682;DHT22;7429;52.498;13.480;2023-04-24T01:29:22;10.90;99.90
14682;DHT22;7429;52.498;13.480;2023-04-24T01:32:26;10.90;99.90
14682;DHT22;7429;52.498;13.480;2023-04-24T01:35:34;10.90;99.90
14682;DHT22;7429;52.498;13.480;2023-04-24T01:38:40;10.90;99.90
14682;DHT22;7429;52.498;13.480;2023-04-24T01:41:43;10.90;99.90
14682;DHT22;7429;52.498;13.480;2023-04-24T01:44:47;10.90;99.90
14682;DHT22;7429;52.498;13.480;2023-04-24T01:47:50;10.90;99.90
14682;DHT22;7429;52.498;13.480;2023-04-24T01:50:53;10.90;99.90
14682;DHT22;7429;52.498;13.480;2023-04-24T01:53:58;11.00;99.90
14682;DHT22;7429;52.498;13.480;2023-04-24T01:57:01;11.00;99.90
14682;DHT22;7429;52.498;13.480;2023-04-24T02:00:06;10.90;99.90
14682;DHT22;7429;52.498;13.480;2023-04-24T02:03:15;10.90;99.90
14682;DHT22;7429;52.498;13.480;2023-04-24T02:06:19;10.90;99.90
14682;DHT22;7429;52.498;13.480;2023-04-24T02:09:23;10.90;99.90
14682;DHT22;7429;52.498;13.480;2023-04-24T02:12:26;10.90;99.90
14682;DHT22;7429;52.498;13.480;2023-04-24T02:15:29;10.90;99.90
14682;DHT22;7429;52.498;13.480;2023-04-24T02:18:32;11.00;99.90
14682;DHT22;7429;52.498;13.480;2023-04-24T02:21:35;11.00;99.90
14682;DHT22;7429;52.498;13.480;2023-04-24T02:24:41;11.00;99.90
14682;DHT22;7429;52.498;13.480;2023-04-24T02:27:47;11.00;99.90
14682;DHT22;7429;52.498;13.480;2023-04-24T02:30:50;11.00;99.90
14682;DHT22;7429;52.498;13.480;2023-04-24T02:33:56;11.00;99.90
14682;DHT22;7429;52.498;13.480;2023-04-24T02:36:59;11.00;99.90
14682;DHT22;7429;52.498;13.480;2023-04-24T02:40:06;11.00;99.90
14682;DHT22;7429;52.498;13.480;2023-04-24T02:43:10;11.00;99.90
14682;DHT22;7429;52.498;13.480;2023-04-24T02:46:13;11.00;99.90
14682;DHT22;7429;52.498;13.480;2023-04-24T02:49:16;11.00;99.90
14682;DHT22;7429;52.498;13.480;2023-04-24T02:52:19;11.00;99.90
14682;DHT22;7429;52.498;13.480;2023-04-24T02:55:24;11.00;99.90
14682;DHT22;7429;52.498;13.480;2023-04-24T02:58:27;11.10;99.90
14682;DHT22;7429;52.498;13.480;2023-04-24T03:01:30;11.10;99.90
14682;DHT22;7429;52.498;13.480;2023-04-24T03:04:33;11.20;99.90
14682;DHT22;7429;52.498;13.480;2023-04-24T03:07:37;11.20;99.90
14682;DHT22;7429;52.498;13.480;2023-04-24T03:10:41;11.20;99.90
14682;DHT22;7429;52.498;13.480;2023-04-24T03:13:46;11.20;99.90
14682;DHT22;7429;52.498;13.480;2023-04-24T03:16:53;11.20;99.90
14682;DHT22;7429;52.498;13.480;2023-04-24T03:19:56;11.30;99.90
14682;DHT22;7429;52.498;13.480;2023-04-24T03:23:01;11.30;99.90
14682;DHT22;7429;52.498;13.480;2023-04-24T03:26:09;11.40;99.90
14682;DHT22;7429;52.498;13.480;2023-04-24T03:29:19;11.50;99.90
14682;DHT22;7429;52.498;13.480;2023-04-24T03:32:23;11.40;99.90
14682;DHT22;7429;52.498;13.480;2023-04-24T03:35:27;11.50;99.90
14682;DHT22;7429;52.498;13.480;2023-04-24T03:38:31;11.50;99.90
14682;DHT22;7429;52.498;13.480;2023-04-24T03:41:54;11.60;99.90
14682;DHT22;7429;52.498;13.480;2023-04-24T03:45:06;11.60;99.90
14682;DHT22;7429;52.498;13.480;2023-04-24T03:48:13;11.60;99.90
14682;DHT22;7429;52.498;13.480;2023-04-24T03:51:16;11.60;99.90
14682;DHT22;7429;52.498;13.480;2023-04-24T03:54:21;11.60;99.90
14682;DHT22;7429;52.498;13.480;2023-04-24T03:57:27;11.60;99.90
14682;DHT22;7429;52.498;13.480;2023-04-24T04:00:47;11.60;99.90
14682;DHT22;7429;52.498;13.480;2023-04-24T04:04:11;11.60;99.90
14682;DHT22;7429;52.498;13.480;2023-04-24T04:07:15;11.60;99.90
14682;DHT22;7429;52.498;13.480;2023-04-24T04:10:20;11.60;99.90
14682;DHT22;7429;52.498;13.480;2023-04-24T04:13:25;11.70;99.90
14682;DHT22;7429;52.498;13.480;2023-04-24T04:16:31;11.70;99.90
14682;DHT22;7429;52.498;13.480;2023-04-24T04:19:37;11.70;99.90
14682;DHT22;7429;52.498;13.480;2023-04-24T04:22:44;11.80;99.90
14682;DHT22;7429;52.498;13.480;2023-04-24T04:25:54;11.80;99.90
14682;DHT22;7429;52.498;13.480;2023-04-24T04:29:06;11.70;99.90
14682;DHT22;7429;52.498;13.480;2023-04-24T04:32:16;11.80;99.90
14682;DHT22;7429;52.498;13.480;2023-04-24T04:35:19;11.90;99.90
14682;DHT22;7429;52.498;13.480;2023-04-24T04:38:25;11.80;99.90
14682;DHT22;7429;52.498;13.480;2023-04-24T04:41:38;11.80;99.90
14682;DHT22;7429;52.498;13.480;2023-04-24T04:44:46;11.90;99.90
14682;DHT22;7429;52.498;13.480;2023-04-24T04:47:53;11.90;99.90
14682;DHT22;7429;52.498;13.480;2023-04-24T04:51:00;11.90;99.90
14682;DHT22;7429;52.498;13.480;2023-04-24T04:54:04;11.90;99.90
14682;DHT22;7429;52.498;13.480;2023-04-24T04:57:07;12.00;99.90
14682;DHT22;7429;52.498;13.480;2023-04-24T05:00:13;12.00;99.90
14682;DHT22;7429;52.498;13.480;2023-04-24T05:03:23;12.00;99.90
14682;DHT22;7429;52.498;13.480;2023-04-24T05:06:32;12.10;99.90
14682;DHT22;7429;52.498;13.480;2023-04-24T05:09:35;12.10;99.90
14682;DHT22;7429;52.498;13.480;2023-04-24T05:12:40;12.10;99.90
14682;DHT22;7429;52.498;13.480;2023-04-24T05:15:48;12.20;99.90
14682;DHT22;7429;52.498;13.480;2023-04-24T05:18:51;12.20;99.90
14682;DHT22;7429;52.498;13.480;2023-04-24T05:22:01;12.30;99.90
14682;DHT22;7429;52.498;13.480;2023-04-24T05:25:08;12.30;99.90
14682;DHT22;7429;52.498;13.480;2023-04-24T05:28:17;12.30;99.90
14682;DHT22;7429;52.498;13.480;2023-04-24T05:31:29;12.30;99.90
14682;DHT22;7429;52.498;13.480;2023-04-24T05:34:32;12.30;99.90
14682;DHT22;7429;52.498;13.480;2023-04-24T05:37:36;12.40;99.90
14682;DHT22;7429;52.498;13.480;2023-04-24T05:40:39;12.50;99.90
14682;DHT22;7429;52.498;13.480;2023-04-24T05:43:42;12.50;99.90
14682;DHT22;7429;52.498;13.480;2023-04-24T05:46:47;12.60;99.90
14682;DHT22;7429;52.498;13.480;2023-04-24T05:49:51;12.70;99.90
14682;DHT22;7429;52.498;13.480;2023-04-24T05:52:54;12.70;99.90
14682;DHT22;7429;52.498;13.480;2023-04-24T06:01:30;12.80;99.90
14682;DHT22;7429;52.498;13.480;2023-04-24T06:04:44;12.90;99.90
14682;DHT22;7429;52.498;13.480;2023-04-24T06:07:48;12.90;99.90
14682;DHT22;7429;52.498;13.480;2023-04-24T06:10:51;13.00;99.90
14682;DHT22;7429;52.498;13.480;2023-04-24T06:13:56;13.10;99.90
14682;DHT22;7429;52.498;13.480;2023-04-24T06:17:22;13.10;99.90
14682;DHT22;7429;52.498;13.480;2023-04-24T06:20:26;13.30;99.90
14682;DHT22;7429;52.498;13.480;2023-04-24T06:23:30;13.40;99.90
14682;DHT22;7429;52.498;13.480;2023-04-24T06:26:34;13.50;99.90
14682;DHT22;7429;52.498;13.480;2023-04-24T06:29:38;13.60;99.90
14682;DHT22;7429;52.498;13.480;2023-04-24T06:32:41;13.60;99.90
14682;DHT22;7429;52.498;13.480;2023-04-24T06:35:45;13.60;99.90
14682;DHT22;7429;52.498;13.480;2023-04-24T06:38:49;13.60;99.90
14682;DHT22;7429;52.498;13.480;2023-04-24T06:41:52;13.60;99.90
14682;DHT22;7429;52.498;13.480;2023-04-24T06:44:55;13.60;99.90
14682;DHT22;7429;52.498;13.480;2023-04-24T06:47:58;13.70;99.90
14682;DHT22;7429;52.498;13.480;2023-04-24T06:51:02;13.90;99.90
14682;DHT22;7429;52.498;13.480;2023-04-24T06:54:05;14.10;99.90
14682;DHT22;7429;52.498;13.480;2023-04-24T06:57:08;14.30;99.90
14682;DHT22;7429;52.498;13.480;2023-04-24T07:00:13;14.50;99.90
14682;DHT22;7429;52.498;13.480;2023-04-24T07:03:16;14.60;99.90
14682;DHT22;7429;52.498;13.480;2023-04-24T07:06:21;14.80;99.90
14682;DHT22;7429;52.498;13.480;2023-04-24T07:09:26;15.00;99.90
14682;DHT22;7429;52.498;13.480;2023-04-24T07:12:30;15.00;99.90
14682;DHT22;7429;52.498;13.480;2023-04-24T07:15:34;15.10;99.90
14682;DHT22;7429;52.498;13.480;2023-04-24T07:18:38;15.30;99.90
14682;DHT22;7429;52.498;13.480;2023-04-24T07:21:42;15.40;99.90
14682;DHT22;7429;52.498;13.480;2023-04-24T07:24:46;15.40;99.90
14682;DHT22;7429;52.498;13.480;2023-04-24T07:27:49;15.60;99.90
14682;DHT22;7429;52.498;13.480;2023-04-24T07:30:52;15.70;99.90
14682;DHT22;7429;52.498;13.480;2023-04-24T07:33:56;15.70;99.90
14682;DHT22;7429;52.498;13.480;2023-04-24T07:37:01;15.70;99.90
14682;DHT22;7429;52.498;13.480;2023-04-24T07:40:06;15.70;99.90
14682;DHT22;7429;52.498;13.480;2023-04-24T07:43:09;15.70;99.90
14682;DHT22;7429;52.498;13.480;2023-04-24T07:46:12;15.60;99.90
14682;DHT22;7429;52.498;13.480;2023-04-24T07:49:16;15.60;99.90
14682;DHT22;7429;52.498;13.480;2023-04-24T07:52:22;15.60;99.90
14682;DHT22;7429;52.498;13.480;2023-04-24T07:55:25;15.70;99.90
14682;DHT22;7429;52.498;13.480;2023-04-24T07:58:29;15.90;99.90
14682;DHT22;7429;52.498;13.480;2023-04-24T08:01:32;16.00;99.90
14682;DHT22;7429;52.498;13.480;2023-04-24T08:04:35;16.20;99.90
14682;DHT22;7429;52.498;13.480;2023-04-24T08:07:42;16.40;99.90
14682;DHT22;7429;52.498;13.480;2023-04-24T08:10:48;16.50;99.90
14682;DHT22;7429;52.498;13.480;2023-04-24T08:13:51;16.60;99.90
14682;DHT22;7429;52.498;13.480;2023-04-24T08:16:54;16.70;99.90
14682;DHT22;7429;52.498;13.480;2023-04-24T08:19:58;16.80;99.90
14682;DHT22;7429;52.498;13.480;2023-04-24T08:23:06;16.70;99.90
14682;DHT22;7429;52.498;13.480;2023-04-24T08:26:10;16.80;99.90
14682;DHT22;7429;52.498;13.480;2023-04-24T08:29:15;16.70;99.90
14682;DHT22;7429;52.498;13.480;2023-04-24T08:32:18;16.70;99.90
14682;DHT22;7429;52.498;13.480;2023-04-24T08:35:21;16.90;99.90
14682;DHT22;7429;52.498;13.480;2023-04-24T08:38:26;17.10;99.90
14682;DHT22;7429;52.498;13.480;2023-04-24T08:41:29;17.20;99.90
14682;DHT22;7429;52.498;13.480;2023-04-24T08:44:34;17.40;99.90
14682;DHT22;7429;52.498;13.480;2023-04-24T08:47:39;17.60;99.90
14682;DHT22;7429;52.498;13.480;2023-04-24T08:50:43;17.70;99.90
14682;DHT22;7429;52.498;13.480;2023-04-24T08:53:48;17.70;99.90
14682;DHT22;7429;52.498;13.480;2023-04-24T08:56:54;17.90;99.90
14682;DHT22;7429;52.498;13.480;2023-04-24T09:00:03;18.00;99.90
14682;DHT22;7429;52.498;13.480;2023-04-24T09:03:07;18.20;99.90
14682;DHT22;7429;52.498;13.480;2023-04-24T09:06:11;18.20;99.90
14682;DHT22;7429;52.498;13.480;2023-04-24T09:09:16;18.10;99.90
14682;DHT22;7429;52.498;13.480;2023-04-24T09:12:22;18.10;99.90
14682;DHT22;7429;52.498;13.480;2023-04-24T09:15:25;18.30;99.90
14682;DHT22;7429;52.498;13.480;2023-04-24T09:18:28;18.20;99.90
14682;DHT22;7429;52.498;13.480;2023-04-24T09:21:32;18.30;99.90
14682;DHT22;7429;52.498;13.480;2023-04-24T09:24:38;18.20;99.90
14682;DHT22;7429;52.498;13.480;2023-04-24T09:27:45;18.10;99.90
14682;DHT22;7429;52.498;13.480;2023-04-24T09:31:02;18.00;99.90
14682;DHT22;7429;52.498;13.480;2023-04-24T09:34:06;17.90;99.90
14682;DHT22;7429;52.498;13.480;2023-04-24T09:37:09;17.80;99.90
14682;DHT22;7429;52.498;13.480;2023-04-24T09:40:16;17.80;99.90
14682;DHT22;7429;52.498;13.480;2023-04-24T09:43:20;17.70;99.90
14682;DHT22;7429;52.498;13.480;2023-04-24T09:46:30;17.50;99.90
14682;DHT22;7429;52.498;13.480;2023-04-24T09:49:35;17.40;99.90
14682;DHT22;7429;52.498;13.480;2023-04-24T09:52:44;17.20;99.90
14682;DHT22;7429;52.498;13.480;2023-04-24T09:55:50;17.10;99.90
14682;DHT22;7429;52.498;13.480;2023-04-24T09:58:54;17.10;99.90
14682;DHT22;7429;52.498;13.480;2023-04-24T10:01:59;17.20;99.90
14682;DHT22;7429;52.498;13.480;2023-04-24T10:05:02;17.30;99.90
14682;DHT22;7429;52.498;13.480;2023-04-24T10:08:07;17.30;99.90
14682;DHT22;7429;52.498;13.480;2023-04-24T10:11:13;17.60;99.90
14682;DHT22;7429;52.498;13.480;2023-04-24T10:14:20;17.70;99.90
14682;DHT22;7429;52.498;13.480;2023-04-24T10:17:25;17.70;99.90
14682;DHT22;7429;52.498;13.480;2023-04-24T10:20:29;17.80;99.90
14682;DHT22;7429;52.498;13.480;2023-04-24T10:23:33;17.80;99.90
14682;DHT22;7429;52.498;13.480;2023-04-24T10:26:41;17.80;99.90
14682;DHT22;7429;52.498;13.480;2023-04-24T10:29:45;17.90;99.90
14682;DHT22;7429;52.498;13.480;2023-04-24T10:32:50;17.90;99.90
14682;DHT22;7429;52.498;13.480;2023-04-24T10:35:53;17.90;99.90
14682;DHT22;7429;52.498;13.480;2023-04-24T10:38:59;17.90;99.90
14682;DHT22;7429;52.498;13.480;2023-04-24T10:42:15;17.90;99.90
14682;DHT22;7429;52.498;13.480;2023-04-24T10:45:19;17.90;99.90
14682;DHT22;7429;52.498;13.480;2023-04-24T10:48:26;18.00;99.90
14682;DHT22;7429;52.498;13.480;2023-04-24T10:51:45;17.90;99.90
14682;DHT22;7429;52.498;13.480;2023-04-24T10:54:51;17.80;99.90
14682;DHT22;7429;52.498;13.480;2023-04-24T10:58:04;17.80;99.90
14682;DHT22;7429;52.498;13.480;2023-04-24T11:01:08;17.70;99.90
14682;DHT22;7429;52.498;13.480;2023-04-24T11:04:11;17.60;99.90
14682;DHT22;7429;52.498;13.480;2023-04-24T11:07:15;17.60;99.90
14682;DHT22;7429;52.498;13.480;2023-04-24T11:10:25;17.50;99.90
14682;DHT22;7429;52.498;13.480;2023-04-24T11:14:02;17.50;99.90
14682;DHT22;7429;52.498;13.480;2023-04-24T11:17:08;17.70;99.90
14682;DHT22;7429;52.498;13.480;2023-04-24T11:20:17;18.30;99.90
14682;DHT22;7429;52.498;13.480;2023-04-24T11:23:26;18.90;99.90
14682;DHT22;7429;52.498;13.480;2023-04-24T11:26:29;19.40;99.90
14682;DHT22;7429;52.498;13.480;2023-04-24T11:29:46;19.30;99.90
14682;DHT22;7429;52.498;13.480;2023-04-24T11:32:52;19.10;99.90
14682;DHT22;7429;52.498;13.480;2023-04-24T11:35:55;18.80;99.90
14682;DHT22;7429;52.498;13.480;2023-04-24T11:38:58;18.40;99.90
14682;DHT22;7429;52.498;13.480;2023-04-24T11:42:02;18.10;99.90
14682;DHT22;7429;52.498;13.480;2023-04-24T11:45:12;16.80;99.90
14682;DHT22;7429;52.498;13.480;2023-04-24T11:48:19;15.70;99.90
14682;DHT22;7429;52.498;13.480;2023-04-24T11:51:25;15.20;99.90
14682;DHT22;7429;52.498;13.480;2023-04-24T11:54:37;15.10;99.90
14682;DHT22;7429;52.498;13.480;2023-04-24T11:57:42;15.60;99.90
14682;DHT22;7429;52.498;13.480;2023-04-24T12:00:56;16.20;99.90
14682;DHT22;7429;52.498;13.480;2023-04-24T12:04:00;16.80;99.90
14682;DHT22;7429;52.498;13.480;2023-04-24T12:07:04;17.20;99.90
14682;DHT22;7429;52.498;13.480;2023-04-24T12:10:08;17.50;99.90
14682;DHT22;7429;52.498;13.480;2023-04-24T12:13:12;18.00;99.90
14682;DHT22;7429;52.498;13.480;2023-04-24T12:16:17;18.10;99.90
14682;DHT22;7429;52.498;13.480;2023-04-24T12:19:21;18.50;99.90
14682;DHT22;7429;52.498;13.480;2023-04-24T12:22:25;18.90;99.90
14682;DHT22;7429;52.498;13.480;2023-04-24T12:25:29;19.30;99.90
14682;DHT22;7429;52.498;13.480;2023-04-24T12:28:35;19.60;99.90
14682;DHT22;7429;52.498;13.480;2023-04-24T12:31:40;19.90;99.90
14682;DHT22;7429;52.498;13.480;2023-04-24T12:34:43;19.80;99.90
14682;DHT22;7429;52.498;13.480;2023-04-24T12:37:47;19.60;99.90
14682;DHT22;7429;52.498;13.480;2023-04-24T12:41:02;18.80;99.90
14682;DHT22;7429;52.498;13.480;2023-04-24T12:44:10;18.50;99.90
14682;DHT22;7429;52.498;13.480;2023-04-24T12:47:16;18.20;99.90
14682;DHT22;7429;52.498;13.480;2023-04-24T12:50:19;18.20;99.90
14682;DHT22;7429;52.498;13.480;2023-04-24T12:53:22;18.10;99.90
14682;DHT22;7429;52.498;13.480;2023-04-24T12:56:31;18.10;99.90
14682;DHT22;7429;52.498;13.480;2023-04-24T12:59:34;18.10;99.90
14682;DHT22;7429;52.498;13.480;2023-04-24T13:02:39;18.30;99.90
14682;DHT22;7429;52.498;13.480;2023-04-24T13:05:44;18.50;99.90
14682;DHT22;7429;52.498;13.480;2023-04-24T13:08:47;18.60;99.90
14682;DHT22;7429;52.498;13.480;2023-04-24T13:11:51;18.80;99.90
14682;DHT22;7429;52.498;13.480;2023-04-24T13:14:54;19.20;99.90
14682;DHT22;7429;52.498;13.480;2023-04-24T13:17:58;19.50;99.90
14682;DHT22;7429;52.498;13.480;2023-04-24T13:21:02;19.20;99.90
14682;DHT22;7429;52.498;13.480;2023-04-24T13:24:05;19.20;99.90
14682;DHT22;7429;52.498;13.480;2023-04-24T13:27:09;19.40;99.90
14682;DHT22;7429;52.498;13.480;2023-04-24T13:30:12;19.70;99.90
14682;DHT22;7429;52.498;13.480;2023-04-24T13:33:17;19.80;99.90
14682;DHT22;7429;52.498;13.480;2023-04-24T13:36:21;20.10;99.90
14682;DHT22;7429;52.498;13.480;2023-04-24T13:39:24;20.00;99.90
14682;DHT22;7429;52.498;13.480;2023-04-24T13:42:28;19.90;99.90
14682;DHT22;7429;52.498;13.480;2023-04-24T13:45:31;20.00;99.90
14682;DHT22;7429;52.498;13.480;2023-04-24T13:49:07;20.10;99.90
14682;DHT22;7429;52.498;13.480;2023-04-24T13:52:10;20.00;99.90
14682;DHT22;7429;52.498;13.480;2023-04-24T13:55:14;20.10;99.90
14682;DHT22;7429;52.498;13.480;2023-04-24T13:58:17;20.30;99.90
14682;DHT22;7429;52.498;13.480;2023-04-24T14:01:20;20.30;99.90
14682;DHT22;7429;52.498;13.480;2023-04-24T14:04:27;20.10;99.90
14682;DHT22;7429;52.498;13.480;2023-04-24T14:07:30;19.90;99.90
14682;DHT22;7429;52.498;13.480;2023-04-24T14:10:33;20.00;99.90
14682;DHT22;7429;52.498;13.480;2023-04-24T14:13:37;20.20;99.90
14682;DHT22;7429;52.498;13.480;2023-04-24T14:16:40;20.20;99.90
14682;DHT22;7429;52.498;13.480;2023-04-24T14:19:44;20.20;99.90
14682;DHT22;7429;52.498;13.480;2023-04-24T14:22:47;20.30;99.90
14682;DHT22;7429;52.498;13.480;2023-04-24T14:25:50;20.00;99.90
14682;DHT22;7429;52.498;13.480;2023-04-24T14:28:54;19.60;99.90
14682;DHT22;7429;52.498;13.480;2023-04-24T14:32:08;19.20;99.90
14682;DHT22;7429;52.498;13.480;2023-04-24T14:35:12;18.90;99.90
14682;DHT22;7429;52.498;13.480;2023-04-24T14:38:16;18.60;99.90
14682;DHT22;7429;52.498;13.480;2023-04-24T14:41:19;18.80;99.90
14682;DHT22;7429;52.498;13.480;2023-04-24T14:44:22;19.40;99.90
14682;DHT22;7429;52.498;13.480;2023-04-24T14:47:26;19.30;99.90
14682;DHT22;7429;52.498;13.480;2023-04-24T14:50:30;19.20;99.90
14682;DHT22;7429;52.498;13.480;2023-04-24T14:53:33;19.10;99.90
14682;DHT22;7429;52.498;13.480;2023-04-24T14:56:39;19.10;99.90
14682;DHT22;7429;52.498;13.480;2023-04-24T14:59:44;18.90;99.90
14682;DHT22;7429;52.498;13.480;2023-04-24T15:02:47;19.40;99.90
14682;DHT22;7429;52.498;13.480;2023-04-24T15:05:52;19.70;99.90
14682;DHT22;7429;52.498;13.480;2023-04-24T15:08:55;19.60;99.90
14682;DHT22;7429;52.498;13.480;2023-04-24T15:11:58;19.30;99.90
14682;DHT22;7429;52.498;13.480;2023-04-24T15:15:05;19.00;99.90
14682;DHT22;7429;52.498;13.480;2023-04-24T15:18:09;18.70;99.90
14682;DHT22;7429;52.498;13.480;2023-04-24T15:21:15;18.40;99.90
14682;DHT22;7429;52.498;13.480;2023-04-24T15:24:18;18.20;99.90
14682;DHT22;7429;52.498;13.480;2023-04-24T15:27:21;17.90;99.90
14682;DHT22;7429;52.498;13.480;2023-04-24T15:30:26;17.70;99.90
14682;DHT22;7429;52.498;13.480;2023-04-24T15:33:29;18.10;99.90
14682;DHT22;7429;52.498;13.480;2023-04-24T15:36:33;18.30;99.90
14682;DHT22;7429;52.498;13.480;2023-04-24T15:39:37;18.10;99.90
14682;DHT22;7429;52.498;13.480;2023-04-24T15:42:41;17.80;99.90
14682;DHT22;7429;52.498;13.480;2023-04-24T15:45:45;17.60;99.90
14682;DHT22;7429;52.498;13.480;2023-04-24T15:48:49;17.40;99.90
14682;DHT22;7429;52.498;13.480;2023-04-24T15:51:54;17.30;99.90
14682;DHT22;7429;52.498;13.480;2023-04-24T15:54:57;17.10;99.90
14682;DHT22;7429;52.498;13.480;2023-04-24T15:58:00;16.90;99.90
14682;DHT22;7429;52.498;13.480;2023-04-24T16:01:05;16.80;99.90
14682;DHT22;7429;52.498;13.480;2023-04-24T16:04:08;16.80;99.90
14682;DHT22;7429;52.498;13.480;2023-04-24T16:07:13;16.70;99.90
14682;DHT22;7429;52.498;13.480;2023-04-24T16:10:19;16.60;99.90
14682;DHT22;7429;52.498;13.480;2023-04-24T16:13:22;16.60;99.90
14682;DHT22;7429;52.498;13.480;2023-04-24T16:16:26;16.50;99.90
14682;DHT22;7429;52.498;13.480;2023-04-24T16:19:30;16.50;99.90
14682;DHT22;7429;52.498;13.480;2023-04-24T16:22:39;16.40;99.90
14682;DHT22;7429;52.498;13.480;2023-04-24T16:25:42;16.40;99.90
14682;DHT22;7429;52.498;13.480;2023-04-24T16:28:45;16.30;99.90
14682;DHT22;7429;52.498;13.480;2023-04-24T16:31:49;16.20;99.90
14682;DHT22;7429;52.498;13.480;2023-04-24T16:34:52;16.20;99.90
14682;DHT22;7429;52.498;13.480;2023-04-24T16:37:56;16.20;99.90
14682;DHT22;7429;52.498;13.480;2023-04-24T16:41:00;16.20;99.90
14682;DHT22;7429;52.498;13.480;2023-04-24T16:44:03;16.10;99.90
14682;DHT22;7429;52.498;13.480;2023-04-24T16:47:06;16.00;99.90
14682;DHT22;7429;52.498;13.480;2023-04-24T16:50:10;16.00;99.90
14682;DHT22;7429;52.498;13.480;2023-04-24T16:53:15;15.90;99.90
14682;DHT22;7429;52.498;13.480;2023-04-24T16:56:18;15.80;99.90
14682;DHT22;7429;52.498;13.480;2023-04-24T16:59:21;15.70;99.90
14682;DHT22;7429;52.498;13.480;2023-04-24T17:02:25;15.50;99.90
14682;DHT22;7429;52.498;13.480;2023-04-24T17:05:30;15.30;99.90
14682;DHT22;7429;52.498;13.480;2023-04-24T17:08:37;15.10;99.90
14682;DHT22;7429;52.498;13.480;2023-04-24T17:11:40;14.70;99.90
14682;DHT22;7429;52.498;13.480;2023-04-24T17:14:43;14.50;99.90
14682;DHT22;7429;52.498;13.480;2023-04-24T17:17:48;14.40;99.90
14682;DHT22;7429;52.498;13.480;2023-04-24T17:20:51;14.30;99.90
14682;DHT22;7429;52.498;13.480;2023-04-24T17:23:56;14.20;99.90
14682;DHT22;7429;52.498;13.480;2023-04-24T17:26:59;14.10;99.90
14682;DHT22;7429;52.498;13.480;2023-04-24T17:30:15;13.90;99.90
14682;DHT22;7429;52.498;13.480;2023-04-24T17:33:18;13.70;99.90
14682;DHT22;7429;52.498;13.480;2023-04-24T17:36:22;13.70;99.90
14682;DHT22;7429;52.498;13.480;2023-04-24T17:39:27;13.60;99.90
14682;DHT22;7429;52.498;13.480;2023-04-24T17:42:30;13.50;99.90
14682;DHT22;7429;52.498;13.480;2023-04-24T17:45:33;13.40;99.90
14682;DHT22;7429;52.498;13.480;2023-04-24T17:48:37;13.40;99.90
14682;DHT22;7429;52.498;13.480;2023-04-24T17:51:40;13.30;99.90
14682;DHT22;7429;52.498;13.480;2023-04-24T17:54:45;13.20;99.90
14682;DHT22;7429;52.498;13.480;2023-04-24T17:57:50;13.20;99.90
14682;DHT22;7429;52.498;13.480;2023-04-24T18:00:54;13.10;99.90
14682;DHT22;7429;52.498;13.480;2023-04-24T18:03:58;13.10;99.90
14682;DHT22;7429;52.498;13.480;2023-04-24T18:07:02;13.00;99.90
14682;DHT22;7429;52.498;13.480;2023-04-24T18:10:08;12.90;99.90
14682;DHT22;7429;52.498;13.480;2023-04-24T18:13:11;12.80;99.90
14682;DHT22;7429;52.498;13.480;2023-04-24T18:16:14;12.70;99.90
14682;DHT22;7429;52.498;13.480;2023-04-24T18:19:17;12.70;99.90
14682;DHT22;7429;52.498;13.480;2023-04-24T18:22:20;12.60;99.90
14682;DHT22;7429;52.498;13.480;2023-04-24T18:25:25;12.60;99.90
14682;DHT22;7429;52.498;13.480;2023-04-24T18:28:29;12.50;99.90
14682;DHT22;7429;52.498;13.480;2023-04-24T18:31:35;12.40;99.90
14682;DHT22;7429;52.498;13.480;2023-04-24T18:34:38;12.30;99.90
14682;DHT22;7429;52.498;13.480;2023-04-24T18:37:41;12.30;99.90
14682;DHT22;7429;52.498;13.480;2023-04-24T18:40:47;12.20;99.90
14682;DHT22;7429;52.498;13.480;2023-04-24T18:43:50;12.20;99.90
14682;DHT22;7429;52.498;13.480;2023-04-24T18:46:54;12.10;99.90
14682;DHT22;7429;52.498;13.480;2023-04-24T18:49:58;12.00;99.90
14682;DHT22;7429;52.498;13.480;2023-04-24T18:53:01;11.90;99.90
14682;DHT22;7429;52.498;13.480;2023-04-24T18:56:05;11.80;99.90
14682;DHT22;7429;52.498;13.480;2023-04-24T18:59:09;11.80;99.90
14682;DHT22;7429;52.498;13.480;2023-04-24T19:02:12;11.70;99.90
14682;DHT22;7429;52.498;13.480;2023-04-24T19:05:16;11.60;99.90
14682;DHT22;7429;52.498;13.480;2023-04-24T19:08:19;11.50;99.90
14682;DHT22;7429;52.498;13.480;2023-04-24T19:11:23;11.50;99.90
14682;DHT22;7429;52.498;13.480;2023-04-24T19:14:27;11.40;99.90
14682;DHT22;7429;52.498;13.480;2023-04-24T19:17:30;11.40;99.90
14682;DHT22;7429;52.498;13.480;2023-04-24T19:20:37;11.30;99.90
14682;DHT22;7429;52.498;13.480;2023-04-24T19:23:44;11.20;99.90
14682;DHT22;7429;52.498;13.480;2023-04-24T19:27:50;11.10;99.90
14682;DHT22;7429;52.498;13.480;2023-04-24T19:31:02;11.10;99.90
14682;DHT22;7429;52.498;13.480;2023-04-24T19:34:19;11.00;99.90